메인 페이지
METAR-TAF:

METAR-TAF

공항 :

베닌시티, 나이지리아

위도: 6-19N, 경도: 5-36E, 고도: 79m

METAR: 누락

시각: 09:27 (08:27 UTC)

예보

예보는 9 시간 27분 전, 23:00시(UTC)에 발표되었습니다.
예보 대상 시간: 02일 00시부터 03일 06시까지 (UTC)
여러 방향의 바람 2kt
시정: 8000m
고도 1000ft 상공 구름 보통
일시적
02일 02시부터 02일 06시까지 (UTC)
고도 1000ft 상공 구름 보통
고도 2000ft 상공 구름 조금, 적란운.
뇌우
확률 30%
02일 04시부터 02일 08시까지 (UTC)
시정: 5000m
고도 900ft 상공 구름 많음
고도 1900ft 상공 구름 조금, 적란운.
뇌우, 약한비
전환 중
02일 09시부터 02일 11시까지 (UTC)
서남서10kt
고도 1300ft 상공 구름 많음
고도 2000ft 상공 구름 조금, 적란운.
전환 중
02일 16시부터 02일 18시까지 (UTC)
여러 방향의 바람 2kt
고도 1100ft 상공 구름 보통
일시적
02일 19시부터 03일 01시까지 (UTC)
고도 1100ft 상공 구름 보통
고도 2000ft 상공 구름 조금, 적란운.
뇌우
확률 30%
02일 20시부터 03일 03시까지 (UTC)
시정: 5000m
고도 900ft 상공 구름 많음
고도 1900ft 상공 구름 조금, 적란운.
뇌우, 약한비

TAF: DNBE 012300Z 0200/0306 VRB02KT 8000 SCT010 TEMPO 0202/0206 TS SCT010 FEW020CB PROB30 0204/0208 5000 -TSRA BKN009 FEW019CB BECMG 0209/0211 24010KT BKN013 FEW020CB BECMG 0216/0218 VRB02KT SCT011 TEMPO 0219/0301 TS SCT011 FEW020CB PROB30 0220/0303 5000 -TSRA BKN009 FEW019CB

4,000개 이상의 공항 관측 자료 및 예보 (METAR 및 TAF 보고).

지도상에서 검색 가능한 기상관측소가 노란 점과 빨간 점으로 표시되어 있습니다.

기상관측소 명을 보려면 표시 위로 마우스를 이동하세요.

날씨 관측과 예보를 보려면 클릭하세요.

지도 변경 : 확대하려면 엑스 표시가 있는 녹색 버튼, 축소하려면 빼기 표시가 있는 녹색 버튼, 다음 페이지의 지도를 보려면 녹색 화살표를 클릭하세요.


METAR-TAF: